createdAt,value
2018-01-15T00:02:02.392Z,34.07
2018-01-15T00:04:30.754Z,33.43
2018-01-15T00:06:58.363Z,36.70
2018-01-15T00:09:26.576Z,36.87
2018-01-15T00:11:54.239Z,38.97
2018-01-15T00:14:21.803Z,36.87
2018-01-15T00:16:49.626Z,41.63
2018-01-15T00:19:17.886Z,39.27
2018-01-15T00:21:46.224Z,39.73
2018-01-15T00:24:13.751Z,37.90
2018-01-15T00:26:41.294Z,40.43
2018-01-15T00:29:08.928Z,43.67
2018-01-15T00:31:36.618Z,42.87
2018-01-15T00:34:04.157Z,37.70
2018-01-15T00:36:31.631Z,41.80
2018-01-15T00:38:59.139Z,39.90
2018-01-15T00:41:27.485Z,42.90
2018-01-15T00:43:55.047Z,41.70
2018-01-15T00:46:22.563Z,41.47
2018-01-15T00:48:50.052Z,38.90
2018-01-15T00:51:17.531Z,37.30
2018-01-15T00:53:45.033Z,37.67
2018-01-15T00:56:13.300Z,37.93
2018-01-15T00:58:40.780Z,40.93
2018-01-15T01:01:09.085Z,40.97
2018-01-15T01:03:38.316Z,36.23
2018-01-15T01:06:05.806Z,37.50
2018-01-15T01:08:33.363Z,33.20
2018-01-15T01:11:01.062Z,31.90
2018-01-15T01:13:29.394Z,34.30
2018-01-15T01:15:57.714Z,32.90
2018-01-15T01:18:26.023Z,33.30
2018-01-15T01:20:53.547Z,34.07
2018-01-15T01:23:21.055Z,32.67
2018-01-15T01:25:48.547Z,35.10
2018-01-15T01:28:16.288Z,31.80
2018-01-15T01:30:44.580Z,34.27
2018-01-15T01:33:12.858Z,32.03
2018-01-15T01:35:40.433Z,30.50
2018-01-15T01:38:07.926Z,29.90
2018-01-15T01:40:35.395Z,27.77
2018-01-15T01:43:03.744Z,31.57
2018-01-15T01:45:31.410Z,28.93
2018-01-15T01:47:58.981Z,29.07
2018-01-15T01:50:26.481Z,26.77
2018-01-15T01:52:54.102Z,30.37
2018-01-15T01:55:21.640Z,28.23
2018-01-15T01:57:49.936Z,29.13
2018-01-15T02:00:17.477Z,31.10
2018-01-15T02:02:45.853Z,33.00
2018-01-15T02:05:14.143Z,29.03
2018-01-15T02:07:42.616Z,30.43
2018-01-15T02:10:11.134Z,32.27
2018-01-15T02:12:38.713Z,33.60
2018-01-15T02:15:06.278Z,35.80
2018-01-15T02:17:33.740Z,32.27
2018-01-15T02:20:01.295Z,33.87
2018-01-15T02:22:29.159Z,35.93
2018-01-15T02:24:56.761Z,37.77
2018-01-15T02:27:25.300Z,36.70
2018-01-15T02:29:53.560Z,39.60
2018-01-15T02:32:21.111Z,41.93
2018-01-15T02:34:50.347Z,44.23
2018-01-15T02:37:17.906Z,39.97
2018-01-15T02:39:46.174Z,40.30
2018-01-15T02:42:14.548Z,38.07
2018-01-15T02:44:42.862Z,39.50
2018-01-15T02:47:11.378Z,39.83
2018-01-15T02:49:38.920Z,40.93
2018-01-15T02:52:06.588Z,42.57
2018-01-15T02:54:34.885Z,38.63
2018-01-15T02:57:02.479Z,42.67
2018-01-15T02:59:30.202Z,38.63
2018-01-15T03:01:57.685Z,38.57
2018-01-15T03:04:25.382Z,41.20
2018-01-15T03:06:53.667Z,39.57
2018-01-15T03:09:21.913Z,38.30
2018-01-15T03:11:50.288Z,38.63
2018-01-15T03:14:18.068Z,41.43
2018-01-15T03:16:45.622Z,38.53
2018-01-15T03:19:13.115Z,37.67
2018-01-15T03:21:40.613Z,40.77
2018-01-15T03:24:08.372Z,43.17
2018-01-15T03:26:36.054Z,43.37
2018-01-15T03:29:03.772Z,43.73
2018-01-15T03:31:31.390Z,38.80
2018-01-15T03:33:59.034Z,43.80
2018-01-15T03:36:27.363Z,44.97
2018-01-15T03:38:54.901Z,44.73
2018-01-15T03:41:22.385Z,44.77
2018-01-15T03:43:49.932Z,45.60
2018-01-15T03:46:17.424Z,46.27
2018-01-15T03:48:45.013Z,41.23
2018-01-15T03:51:12.682Z,42.53
2018-01-15T03:53:40.952Z,42.83
2018-01-15T03:56:08.499Z,45.67
2018-01-15T03:58:35.984Z,40.73
2018-01-15T04:01:03.552Z,41.83
2018-01-15T04:03:31.038Z,42.97
2018-01-15T04:05:59.380Z,42.50
2018-01-15T04:08:26.857Z,43.03
2018-01-15T04:10:54.420Z,45.23
2018-01-15T04:13:22.025Z,44.43
2018-01-15T04:15:49.611Z,45.47
2018-01-15T04:18:17.261Z,46.30
2018-01-15T04:20:44.811Z,45.33
2018-01-15T04:23:13.070Z,43.50
2018-01-15T04:25:40.596Z,43.33
2018-01-15T04:28:08.121Z,41.00
2018-01-15T04:30:35.612Z,44.23
2018-01-15T04:33:03.148Z,46.63
2018-01-15T04:35:30.687Z,46.67
2018-01-15T04:37:58.316Z,47.17
2018-01-15T04:40:25.808Z,47.60
2018-01-15T04:42:53.321Z,45.80
2018-01-15T04:45:20.833Z,46.40
2018-01-15T04:47:48.396Z,46.03
2018-01-15T04:50:17.104Z,47.70
2018-01-15T04:52:45.399Z,48.27
2018-01-15T04:55:13.643Z,45.83
2018-01-15T04:57:41.381Z,48.03
2018-01-15T05:00:08.925Z,49.80
2018-01-15T05:02:36.496Z,51.20
2018-01-15T05:05:04.789Z,50.17
2018-01-15T05:07:32.308Z,49.03
2018-01-15T05:09:59.845Z,49.10
2018-01-15T05:12:27.413Z,49.80
2018-01-15T05:14:54.931Z,47.57
2018-01-15T05:17:22.443Z,47.93
2018-01-15T05:19:50.079Z,50.87
2018-01-15T05:22:18.636Z,48.20
2018-01-15T05:24:46.930Z,49.03
2018-01-15T05:27:14.500Z,47.20
2018-01-15T05:29:42.029Z,49.57
2018-01-15T05:32:10.349Z,48.27
2018-01-15T05:34:37.872Z,52.80
2018-01-15T05:37:05.383Z,50.20
2018-01-15T05:39:33.079Z,50.90
2018-01-15T05:42:00.570Z,49.03
2018-01-15T05:44:28.053Z,48.60
2018-01-15T05:46:55.574Z,48.60
2018-01-15T05:49:23.054Z,51.03
2018-01-15T05:51:50.634Z,52.27
2018-01-15T05:54:18.935Z,49.67
2018-01-15T05:56:46.470Z,49.63
2018-01-15T05:59:14.025Z,47.97
2018-01-15T06:01:41.640Z,46.17
2018-01-15T06:04:09.236Z,45.17
2018-01-15T06:06:36.786Z,53.97
2018-01-15T06:09:04.268Z,51.50
2018-01-15T06:11:32.491Z,47.70
2018-01-15T06:14:01.027Z,47.40
2018-01-15T06:16:28.655Z,45.47
2018-01-15T06:18:56.157Z,48.20
2018-01-15T06:21:23.683Z,48.03
2018-01-15T06:23:51.166Z,50.80
2018-01-15T06:26:18.656Z,47.03
2018-01-15T06:28:46.174Z,50.43
2018-01-15T06:31:13.636Z,45.50
2018-01-15T06:33:41.139Z,49.37
2018-01-15T06:36:08.725Z,50.73
2018-01-15T06:38:36.210Z,47.20
2018-01-15T06:41:04.471Z,46.03
2018-01-15T06:43:31.957Z,47.03
2018-01-15T06:45:59.520Z,44.67
2018-01-15T06:48:27.784Z,44.57
2018-01-15T06:50:55.292Z,42.90
2018-01-15T06:53:22.862Z,46.73
2018-01-15T06:55:50.328Z,45.90
2018-01-15T06:58:17.835Z,43.00
2018-01-15T07:00:45.320Z,43.30
2018-01-15T07:03:13.666Z,45.67
2018-01-15T07:05:41.190Z,42.33
2018-01-15T07:08:08.954Z,39.87
2018-01-15T07:10:36.547Z,40.93
2018-01-15T07:13:04.106Z,39.07
2018-01-15T07:15:31.700Z,40.23
2018-01-15T07:17:59.221Z,37.80
2018-01-15T07:20:26.788Z,39.23
2018-01-15T07:22:54.301Z,38.17
2018-01-15T07:25:21.877Z,40.17
2018-01-15T07:27:50.136Z,41.50
2018-01-15T07:30:17.779Z,44.80
2018-01-15T07:32:45.295Z,40.57
2018-01-15T07:35:13.549Z,39.43
2018-01-15T07:37:41.114Z,38.90
2018-01-15T07:40:08.638Z,37.30
2018-01-15T07:42:36.121Z,40.30
2018-01-15T07:45:03.749Z,36.07
2018-01-15T07:47:31.468Z,41.63
2018-01-15T07:49:59.022Z,38.83
2018-01-15T07:52:26.529Z,40.33
2018-01-15T07:54:54.820Z,36.10
2018-01-15T07:57:23.210Z,36.23
2018-01-15T07:59:50.684Z,38.80
2018-01-15T08:02:18.234Z,36.17
2018-01-15T08:04:45.835Z,39.47
2018-01-15T08:07:13.417Z,40.83
2018-01-15T08:09:40.964Z,40.27
2018-01-15T08:12:08.458Z,40.93
2018-01-15T08:14:35.985Z,37.60
2018-01-15T08:17:03.478Z,43.43
2018-01-15T08:19:31.018Z,36.77
2018-01-15T08:21:58.540Z,36.33
2018-01-15T08:24:26.828Z,36.77
2018-01-15T08:26:54.350Z,36.77
2018-01-15T08:29:21.865Z,36.17
2018-01-15T08:31:49.337Z,35.57
2018-01-15T08:34:16.871Z,35.57
2018-01-15T08:36:44.635Z,36.40
2018-01-15T08:39:12.281Z,35.00
2018-01-15T08:41:39.835Z,36.10
2018-01-15T08:44:07.357Z,34.60
2018-01-15T08:46:34.950Z,35.17
2018-01-15T08:49:02.551Z,38.00
2018-01-15T08:51:30.136Z,33.70
2018-01-15T08:53:58.486Z,34.43
2018-01-15T08:56:26.025Z,36.70
2018-01-15T08:58:53.510Z,34.73
2018-01-15T09:01:21.164Z,34.73
2018-01-15T09:03:48.667Z,32.23
2018-01-15T09:06:16.214Z,32.83
2018-01-15T09:08:43.782Z,32.70
2018-01-15T09:11:11.397Z,36.13
2018-01-15T09:13:39.024Z,38.73
2018-01-15T09:16:07.289Z,32.70
2018-01-15T09:18:34.930Z,34.50
2018-01-15T09:21:02.608Z,32.17
2018-01-15T09:23:30.219Z,33.27
2018-01-15T09:25:58.478Z,34.07
2018-01-15T09:28:26.015Z,35.73
2018-01-15T09:30:53.620Z,35.60
2018-01-15T09:33:21.912Z,38.17
2018-01-15T09:35:49.375Z,35.13
2018-01-15T09:38:16.913Z,36.77
2018-01-15T09:40:45.181Z,40.30
2018-01-15T09:43:12.684Z,38.87
2018-01-15T09:45:40.216Z,41.37
2018-01-15T09:48:08.589Z,41.37
2018-01-15T09:50:36.078Z,39.93
2018-01-15T09:53:04.433Z,39.77
2018-01-15T09:55:31.989Z,45.33
2018-01-15T09:57:59.457Z,42.20
2018-01-15T10:00:27.789Z,43.27
2018-01-15T10:02:55.310Z,42.50
2018-01-15T10:05:22.816Z,43.67
2018-01-15T10:07:50.366Z,45.83
2018-01-15T10:10:18.728Z,44.67
2018-01-15T10:12:46.286Z,46.67
2018-01-15T10:15:14.637Z,40.67
2018-01-15T10:17:42.214Z,44.30
2018-01-15T10:20:10.482Z,45.83
2018-01-15T10:22:37.997Z,44.60
2018-01-15T10:25:06.241Z,41.33
2018-01-15T10:27:33.886Z,43.43
2018-01-15T10:30:01.479Z,41.70
2018-01-15T10:32:29.067Z,41.47
2018-01-15T10:34:56.631Z,40.30
2018-01-15T10:37:24.117Z,40.40
2018-01-15T10:39:51.628Z,40.53
2018-01-15T10:42:20.061Z,42.93
2018-01-15T10:44:48.406Z,44.87
2018-01-15T10:47:16.067Z,42.67
2018-01-15T10:49:43.533Z,45.20
2018-01-15T10:52:11.228Z,40.60
2018-01-15T10:54:39.475Z,40.90
2018-01-15T10:57:06.990Z,39.77
2018-01-15T10:59:34.621Z,40.87
2018-01-15T11:02:02.295Z,44.37
2018-01-15T11:04:29.866Z,40.20
2018-01-15T11:06:58.290Z,40.77
2018-01-15T11:09:25.965Z,38.60
2018-01-15T11:11:53.460Z,41.20
2018-01-15T11:14:20.990Z,40.47
2018-01-15T11:16:48.540Z,40.00
2018-01-15T11:19:16.116Z,39.30
2018-01-15T11:21:43.655Z,38.50
2018-01-15T11:24:11.231Z,40.03
2018-01-15T11:26:38.880Z,37.37
2018-01-15T11:29:06.624Z,38.17
2018-01-15T11:31:34.253Z,36.07
2018-01-15T11:34:02.547Z,40.67
2018-01-15T11:36:30.294Z,33.33
2018-01-15T11:38:58.531Z,36.37
2018-01-15T11:41:26.815Z,33.27
2018-01-15T11:43:54.724Z,36.20
2018-01-15T11:46:22.281Z,34.63
2018-01-15T11:48:49.910Z,34.93
2018-01-15T11:51:18.200Z,33.43
2018-01-15T11:53:46.540Z,31.33
2018-01-15T11:56:14.075Z,30.60
2018-01-15T11:58:42.262Z,31.87
2018-01-15T12:01:09.724Z,34.80
2018-01-15T12:03:37.524Z,32.50
2018-01-15T12:06:04.985Z,31.07
2018-01-15T12:08:32.521Z,34.30
2018-01-15T12:11:00.266Z,34.73
2018-01-15T12:13:28.589Z,33.67
2018-01-15T12:15:56.102Z,32.80
2018-01-15T12:18:24.412Z,33.53
2018-01-15T12:20:51.974Z,32.27
2018-01-15T12:23:21.380Z,31.23
2018-01-15T12:25:50.140Z,29.80
2018-01-15T12:28:17.793Z,30.53
2018-01-15T12:30:45.353Z,36.90
2018-01-15T12:33:12.877Z,32.40
2018-01-15T12:35:40.408Z,31.20
2018-01-15T12:38:08.797Z,33.77
2018-01-15T12:40:37.130Z,29.70
2018-01-15T12:43:04.614Z,31.37
2018-01-15T12:45:32.127Z,32.20
2018-01-15T12:47:59.644Z,29.40
2018-01-15T12:50:27.275Z,32.57
2018-01-15T12:52:54.818Z,31.00
2018-01-15T12:55:22.345Z,32.20
2018-01-15T12:57:49.863Z,31.40
2018-01-15T13:00:17.373Z,31.43
2018-01-15T13:02:49.235Z,30.90
2018-01-15T13:05:16.730Z,30.27
2018-01-15T13:07:56.224Z,27.37
2018-01-15T13:10:23.795Z,25.80
2018-01-15T13:12:51.279Z,27.60
2018-01-15T13:15:19.586Z,25.90
2018-01-15T13:17:47.104Z,25.40
2018-01-15T13:20:14.645Z,24.70
2018-01-15T13:22:42.257Z,26.07
2018-01-15T13:25:10.609Z,26.47
2018-01-15T13:27:38.086Z,25.07
2018-01-15T13:30:06.370Z,20.80
2018-01-15T13:32:34.626Z,23.50
2018-01-15T13:35:02.144Z,22.93
2018-01-15T13:37:30.288Z,26.23
2018-01-15T13:39:57.751Z,26.70
2018-01-15T13:42:25.253Z,25.10
2018-01-15T13:44:52.806Z,23.27
2018-01-15T13:47:20.464Z,27.30
2018-01-15T13:49:47.956Z,27.50
2018-01-15T13:52:15.552Z,174.57
2018-01-15T13:54:43.776Z,71.87
2018-01-15T13:57:12.069Z,207.30
2018-01-15T13:59:39.681Z,27.63
2018-01-15T14:02:07.154Z,22.73
2018-01-15T14:04:34.788Z,23.77
2018-01-15T14:07:02.295Z,15.27
2018-01-15T14:09:31.011Z,22.10
2018-01-15T14:11:59.304Z,15.83
2018-01-15T14:14:26.817Z,17.83
2018-01-15T14:16:54.387Z,22.30
2018-01-15T14:19:21.892Z,14.67
2018-01-15T14:21:50.410Z,20.20
2018-01-15T14:24:18.044Z,12.83
2018-01-15T14:26:45.813Z,16.23
2018-01-15T14:29:13.297Z,16.07
2018-01-15T14:31:40.837Z,12.60
2018-01-15T14:34:09.083Z,12.33
2018-01-15T14:36:36.572Z,12.20
2018-01-15T14:39:04.220Z,12.20
2018-01-15T14:41:32.499Z,10.57
2018-01-15T14:44:00.894Z,15.80
2018-01-15T14:46:29.306Z,10.97
2018-01-15T14:48:56.908Z,11.77
2018-01-15T14:51:24.438Z,10.40
2018-01-15T14:53:52.029Z,11.87
2018-01-15T14:56:19.537Z,11.70
2018-01-15T14:58:47.109Z,9.97
2018-01-15T15:01:15.405Z,9.40
2018-01-15T15:03:43.029Z,9.07
2018-01-15T15:06:10.576Z,9.27
2018-01-15T15:08:38.077Z,8.83
2018-01-15T15:11:06.436Z,8.13
2018-01-15T15:13:33.939Z,8.00
2018-01-15T15:16:01.459Z,7.80
2018-01-15T15:18:28.982Z,10.30
2018-01-15T15:20:56.496Z,7.60
2018-01-15T15:23:24.259Z,8.50
2018-01-15T15:25:51.823Z,7.70
2018-01-15T15:28:19.326Z,8.17
2018-01-15T15:30:46.801Z,7.87
2018-01-15T15:33:14.310Z,7.13
2018-01-15T15:35:41.829Z,7.17
2018-01-15T15:38:09.411Z,7.80
2018-01-15T15:40:37.008Z,7.30
2018-01-15T15:43:04.517Z,9.07
2018-01-15T15:45:32.094Z,9.93
2018-01-15T15:48:00.933Z,8.70
2018-01-15T15:50:29.222Z,8.47
2018-01-15T15:52:56.756Z,7.10
2018-01-15T15:55:38.396Z,8.03
2018-01-15T15:58:06.698Z,8.47
2018-01-15T16:00:35.146Z,7.93
2018-01-15T16:03:02.644Z,9.00
2018-01-15T16:05:30.204Z,8.90
2018-01-15T16:07:57.701Z,9.37
2018-01-15T16:10:25.987Z,8.53
2018-01-15T16:12:53.518Z,9.30
2018-01-15T16:15:21.644Z,8.80
2018-01-15T16:17:49.487Z,8.87
2018-01-15T16:20:16.980Z,8.50
2018-01-15T16:22:56.365Z,9.23
2018-01-15T16:25:23.882Z,10.57
2018-01-15T16:27:51.518Z,9.20
2018-01-15T16:30:19.105Z,9.57
2018-01-15T16:32:46.566Z,10.37
2018-01-15T16:35:15.326Z,8.90
2018-01-15T16:37:42.825Z,9.60
2018-01-15T16:40:10.370Z,9.17
2018-01-15T16:42:37.965Z,9.13
2018-01-15T16:45:06.241Z,10.60
2018-01-15T16:47:33.791Z,11.37
2018-01-15T16:50:07.182Z,13.53
2018-01-15T16:52:34.670Z,14.43
2018-01-15T16:55:02.164Z,9.70
2018-01-15T16:57:30.546Z,9.20
2018-01-15T16:59:58.065Z,9.07
2018-01-15T17:02:25.556Z,9.83
2018-01-15T17:04:53.040Z,8.70
2018-01-15T17:07:20.652Z,7.57
2018-01-15T17:09:48.204Z,8.57
2018-01-15T17:12:16.714Z,8.50
2018-01-15T17:14:45.680Z,8.07
2018-01-15T17:17:13.205Z,8.37
2018-01-15T17:19:41.470Z,8.60
2018-01-15T17:22:09.809Z,7.80
2018-01-15T17:24:37.261Z,7.30
2018-01-15T17:27:04.851Z,7.43
2018-01-15T17:29:32.344Z,8.00
2018-01-15T17:32:00.720Z,14.90
2018-01-15T17:34:28.217Z,11.40
2018-01-15T17:36:55.747Z,9.93
2018-01-15T17:39:23.465Z,11.47
2018-01-15T17:41:51.074Z,13.63
2018-01-15T17:44:18.634Z,10.87
2018-01-15T17:46:48.707Z,11.63
2018-01-15T17:49:17.172Z,10.90
2018-01-15T17:51:45.197Z,10.47
2018-01-15T17:54:14.371Z,10.80
2018-01-15T17:56:44.197Z,9.70
2018-01-15T17:59:12.510Z,10.03
2018-01-15T18:01:41.737Z,10.13
2018-01-15T18:04:09.521Z,9.50
2018-01-15T18:06:37.930Z,9.83
2018-01-15T18:09:06.112Z,10.77
2018-01-15T18:11:35.522Z,11.83
2018-01-15T18:14:04.355Z,13.30
2018-01-15T18:16:32.491Z,13.80
2018-01-15T18:19:02.830Z,12.47
2018-01-15T18:21:30.589Z,10.67
2018-01-15T18:23:58.482Z,11.70
2018-01-15T18:26:27.058Z,11.33
2018-01-15T18:28:56.549Z,11.40
2018-01-15T18:31:34.433Z,21.60
2018-01-15T18:34:03.648Z,56.80
2018-01-15T18:36:31.226Z,10.70
2018-01-15T18:38:58.910Z,10.80
2018-01-15T18:41:26.492Z,18.87
2018-01-15T18:43:53.981Z,7.37
2018-01-15T18:46:25.181Z,6.50
2018-01-15T18:48:53.660Z,6.37
2018-01-15T18:51:21.184Z,6.40
2018-01-15T18:53:51.322Z,9.57
2018-01-15T18:56:19.096Z,6.70
2018-01-15T18:58:48.020Z,6.33
2018-01-15T19:01:16.740Z,5.47
2018-01-15T19:03:44.416Z,5.33
2018-01-15T19:06:12.378Z,5.50
2018-01-15T19:08:40.001Z,5.37
2018-01-15T19:11:07.838Z,4.57
2018-01-15T19:13:37.302Z,5.57
2018-01-15T19:16:06.166Z,4.60
2018-01-15T19:18:34.754Z,3.63
2018-01-15T19:21:03.444Z,3.57
2018-01-15T19:23:31.007Z,2.90
2018-01-15T19:25:58.975Z,2.70
2018-01-15T19:28:33.592Z,3.17
2018-01-15T19:31:01.238Z,2.60
2018-01-15T19:33:30.624Z,2.30
2018-01-15T19:36:05.390Z,2.30
2018-01-15T19:38:36.044Z,2.83
2018-01-15T19:41:05.407Z,3.00
2018-01-15T19:46:53.276Z,2.37
2018-01-15T19:49:26.846Z,2.70
2018-01-15T19:52:00.384Z,3.33
2018-01-15T19:54:33.545Z,2.70
2018-01-15T19:57:06.950Z,3.00
2018-01-15T19:59:40.297Z,3.33
2018-01-15T20:02:13.671Z,4.13
2018-01-15T20:04:50.661Z,3.30
2018-01-15T20:07:24.205Z,3.13
2018-01-15T20:10:12.222Z,4.33
2018-01-15T20:12:40.044Z,3.57
2018-01-15T20:15:10.356Z,3.47
2018-01-15T20:17:39.214Z,3.20
2018-01-15T20:20:07.125Z,3.30
2018-01-15T20:22:35.724Z,3.23
2018-01-15T20:25:03.699Z,3.30
2018-01-15T20:27:31.291Z,2.90
2018-01-15T20:29:59.619Z,3.10
2018-01-15T20:32:27.360Z,3.30
2018-01-15T20:34:55.273Z,2.97
2018-01-15T20:37:26.135Z,2.90
2018-01-15T20:39:54.502Z,3.47
2018-01-15T20:42:23.795Z,2.80
2018-01-15T20:44:51.406Z,3.30
2018-01-15T20:47:19.009Z,2.70
2018-01-15T20:49:47.313Z,3.17
2018-01-15T20:52:15.369Z,2.80
2018-01-15T20:54:43.023Z,3.20
2018-01-15T20:57:10.637Z,3.20
2018-01-15T20:59:41.813Z,2.70
2018-01-15T21:02:10.209Z,2.70
2018-01-15T21:04:37.850Z,3.10
2018-01-15T21:07:05.507Z,3.27
2018-01-15T21:09:33.065Z,2.80
2018-01-15T21:12:03.219Z,2.63
2018-01-15T21:14:30.965Z,2.40
2018-01-15T21:16:58.830Z,3.53
2018-01-15T21:19:26.518Z,2.90
2018-01-15T21:21:54.077Z,2.27
2018-01-15T21:24:21.644Z,2.87
2018-01-15T21:26:49.162Z,2.03
2018-01-15T21:29:16.902Z,2.53
2018-01-15T21:31:44.521Z,1.97
2018-01-15T21:34:12.144Z,1.90
2018-01-15T21:36:40.979Z,1.80
2018-01-15T21:39:08.575Z,2.10
2018-01-15T21:41:36.223Z,1.80
2018-01-15T21:44:03.846Z,2.03
2018-01-15T21:46:31.737Z,1.90
2018-01-15T21:49:00.195Z,1.70
2018-01-15T21:51:27.784Z,9.70
2018-01-15T21:53:57.117Z,1.57
2018-01-15T21:56:25.391Z,1.63
2018-01-15T21:58:53.011Z,1.47
2018-01-15T22:01:20.598Z,1.70
2018-01-15T22:03:48.199Z,1.50
2018-01-15T22:06:15.928Z,1.63
2018-01-15T22:08:43.563Z,1.60
2018-01-15T22:11:11.783Z,1.67
2018-01-15T22:13:40.089Z,1.53
2018-01-15T22:16:07.714Z,1.80
2018-01-15T22:18:35.201Z,1.50
2018-01-15T22:21:04.050Z,1.30
2018-01-15T22:23:32.202Z,1.80
2018-01-15T22:25:59.785Z,1.53
2018-01-15T22:28:27.934Z,1.70
2018-01-15T22:30:55.485Z,1.33
2018-01-15T22:33:23.165Z,1.63
2018-01-15T22:35:51.914Z,1.47
2018-01-15T22:38:19.566Z,1.80
2018-01-15T22:40:50.463Z,1.30
2018-01-15T22:43:18.567Z,1.67
2018-01-15T22:45:46.387Z,1.30
2018-01-15T22:48:17.855Z,1.23
2018-01-15T22:50:45.451Z,1.60
2018-01-15T22:53:12.929Z,1.30
2018-01-15T22:55:40.446Z,1.87
2018-01-15T22:58:07.958Z,1.20
2018-01-15T23:00:35.536Z,1.60
2018-01-15T23:03:03.197Z,1.90
2018-01-15T23:05:31.081Z,2.23
2018-01-15T23:07:59.887Z,1.23
2018-01-15T23:10:27.540Z,1.20
2018-01-15T23:12:55.405Z,1.20
2018-01-15T23:15:24.812Z,0.83
2018-01-15T23:17:52.551Z,1.37
2018-01-15T23:20:20.133Z,1.20
2018-01-15T23:22:47.690Z,1.10
2018-01-15T23:25:16.256Z,1.30
2018-01-15T23:27:43.851Z,1.40
2018-01-15T23:30:11.719Z,1.30
2018-01-15T23:32:39.295Z,1.00
2018-01-15T23:35:07.157Z,1.27
2018-01-15T23:37:34.770Z,1.43
2018-01-15T23:40:02.248Z,1.13
2018-01-15T23:42:31.656Z,1.53
2018-01-15T23:45:00.092Z,1.53
2018-01-15T23:47:27.584Z,0.90
2018-01-15T23:49:55.402Z,1.03
2018-01-15T23:52:23.076Z,0.73
2018-01-15T23:54:50.548Z,1.03
2018-01-15T23:57:18.445Z,1.87
2018-01-15T23:59:49.610Z,0.90
